createdAt,value
2016-04-12T00:00:23.063Z,947.41
2016-04-12T00:01:23.097Z,947.38
2016-04-12T00:02:23.084Z,947.41
2016-04-12T00:03:23.118Z,947.39
2016-04-12T00:04:23.120Z,947.39
2016-04-12T00:05:23.123Z,947.39
2016-04-12T00:06:23.141Z,947.43
2016-04-12T00:07:23.160Z,947.42
2016-04-12T00:08:23.183Z,947.4
2016-04-12T00:09:23.192Z,947.45
2016-04-12T00:10:23.211Z,947.41
2016-04-12T00:11:23.229Z,947.39
2016-04-12T00:12:23.231Z,947.38
2016-04-12T00:13:23.250Z,947.36
2016-04-12T00:14:23.268Z,947.38
2016-04-12T00:15:23.286Z,947.38
2016-04-12T00:16:23.289Z,947.4
2016-04-12T00:17:23.307Z,947.34
2016-04-12T00:18:23.325Z,947.38
2016-04-12T00:19:23.328Z,947.35
2016-04-12T00:20:23.346Z,947.31
2016-04-12T00:21:23.365Z,947.38
2016-04-12T00:22:23.382Z,947.39
2016-04-12T00:23:23.386Z,947.31
2016-04-12T00:24:23.435Z,947.34
2016-04-12T00:25:23.422Z,947.32
2016-04-12T00:26:23.471Z,947.33
2016-04-12T00:27:23.460Z,947.3
2016-04-12T00:28:23.461Z,947.3
2016-04-12T00:29:23.480Z,947.26
2016-04-12T00:30:23.497Z,947.26
2016-04-12T00:31:23.577Z,947.25
2016-04-12T00:32:23.530Z,947.22
2016-04-12T00:33:23.532Z,947.14
2016-04-12T00:34:23.567Z,947.1
2016-04-12T00:35:23.569Z,947.05
2016-04-12T00:36:23.587Z,947.03
2016-04-12T00:37:23.590Z,947.01
2016-04-12T00:38:23.624Z,946.99
2016-04-12T00:39:23.627Z,946.95
2016-04-12T00:40:23.629Z,946.92
2016-04-12T00:41:23.664Z,946.97
2016-04-12T00:42:23.666Z,946.92
2016-04-12T00:43:23.685Z,946.93
2016-04-12T00:44:23.703Z,946.94
2016-04-12T00:45:23.705Z,946.94
2016-04-12T00:46:23.725Z,946.91
2016-04-12T00:47:23.742Z,946.85
2016-04-12T00:48:23.761Z,946.88
2016-04-12T00:49:23.763Z,946.82
2016-04-12T00:50:23.798Z,946.79
2016-04-12T00:51:23.800Z,946.78
2016-04-12T00:52:23.819Z,946.76
2016-04-12T00:53:23.836Z,946.78
2016-04-12T00:54:23.839Z,946.73
2016-04-12T00:55:23.858Z,946.75
2016-04-12T00:56:23.861Z,946.75
2016-04-12T00:57:23.879Z,946.76
2016-04-12T00:58:23.912Z,946.8
2016-04-12T00:59:23.916Z,946.81
2016-04-12T01:00:23.933Z,946.81
2016-04-12T01:01:23.935Z,946.78
2016-04-12T01:02:23.955Z,946.78
2016-04-12T01:03:23.973Z,946.81
2016-04-12T01:04:23.976Z,946.78
2016-04-12T01:05:24.009Z,946.76
2016-04-12T01:06:24.012Z,946.8
2016-04-12T01:07:24.031Z,946.74
2016-04-12T01:08:24.034Z,946.76
2016-04-12T01:09:24.051Z,946.74
2016-04-12T01:10:24.070Z,946.75
2016-04-12T01:11:24.088Z,946.73
2016-04-12T01:12:24.091Z,946.79
2016-04-12T01:13:24.109Z,946.73
2016-04-12T01:14:24.127Z,946.7
2016-04-12T01:15:24.145Z,946.65
2016-04-12T01:16:24.164Z,946.71
2016-04-12T01:17:24.167Z,946.64
2016-04-12T01:18:24.185Z,946.68
2016-04-12T01:19:24.188Z,946.68
2016-04-12T01:20:24.206Z,946.71
2016-04-12T01:21:24.224Z,946.66
2016-04-12T01:22:24.227Z,946.69
2016-04-12T01:23:24.245Z,946.7
2016-04-12T01:24:24.264Z,946.67
2016-04-12T01:25:24.282Z,946.66
2016-04-12T01:26:24.285Z,946.65
2016-04-12T01:27:24.303Z,946.65
2016-04-12T01:28:24.321Z,946.69
2016-04-12T01:29:24.340Z,946.62
2016-04-12T01:30:24.358Z,946.58
2016-04-12T01:31:24.360Z,946.62
2016-04-12T01:32:24.379Z,946.56
2016-04-12T01:33:24.397Z,946.59
2016-04-12T01:34:24.399Z,946.6
2016-04-12T01:35:24.418Z,946.6
2016-04-12T01:36:24.437Z,946.59
2016-04-12T01:37:24.439Z,946.61
2016-04-12T01:38:24.457Z,946.6
2016-04-12T01:39:24.476Z,946.6
2016-04-12T01:40:24.478Z,946.59
2016-04-12T01:41:24.512Z,946.58
2016-04-12T01:42:24.515Z,946.57
2016-04-12T01:43:24.533Z,946.57
2016-04-12T01:44:24.552Z,946.58
2016-04-12T01:45:24.554Z,946.58
2016-04-12T01:46:24.573Z,946.64
2016-04-12T01:47:24.575Z,946.58
2016-04-12T01:48:24.594Z,946.65
2016-04-12T01:49:24.612Z,946.61
2016-04-12T01:50:24.614Z,946.65
2016-04-12T01:51:24.633Z,946.65
2016-04-12T01:52:24.652Z,946.63
2016-04-12T01:53:24.669Z,946.63
2016-04-12T01:54:24.688Z,946.66
2016-04-12T01:55:24.691Z,946.65
2016-04-12T01:56:24.709Z,946.63
2016-04-12T01:57:24.712Z,946.64
2016-04-12T01:58:24.746Z,946.69
2016-04-12T01:59:24.748Z,946.69
2016-04-12T02:00:24.767Z,946.69
2016-04-12T02:01:24.769Z,946.66
2016-04-12T02:02:24.788Z,946.67
2016-04-12T02:03:24.807Z,946.69
2016-04-12T02:04:24.809Z,946.66
2016-04-12T02:05:24.827Z,946.63
2016-04-12T02:06:24.845Z,946.66
2016-04-12T02:07:24.863Z,946.65
2016-04-12T02:08:24.866Z,946.67
2016-04-12T02:09:24.884Z,946.65
2016-04-12T02:10:24.903Z,946.65
2016-04-12T02:11:24.920Z,946.62
2016-04-12T02:12:24.939Z,946.65
2016-04-12T02:13:24.942Z,946.64
2016-04-12T02:14:24.945Z,946.67
2016-04-12T02:15:24.963Z,946.66
2016-04-12T02:16:24.981Z,946.62
2016-04-12T02:17:25.000Z,946.66
2016-04-12T02:18:25.018Z,946.68
2016-04-12T02:19:25.021Z,946.69
2016-04-12T02:20:25.039Z,946.7
2016-04-12T02:21:25.058Z,946.69
2016-04-12T02:22:25.061Z,946.7
2016-04-12T02:23:25.078Z,946.68
2016-04-12T02:24:25.097Z,946.68
2016-04-12T02:25:25.116Z,946.68
2016-04-12T02:26:25.118Z,946.64
2016-04-12T02:27:25.136Z,946.64
2016-04-12T02:28:25.138Z,946.68
2016-04-12T02:29:25.157Z,946.64
2016-04-12T02:30:25.175Z,946.64
2016-04-12T02:31:25.177Z,946.62
2016-04-12T02:32:25.196Z,946.61
2016-04-12T02:33:25.215Z,946.6
2016-04-12T02:34:25.265Z,946.65
2016-04-12T02:35:25.236Z,946.61
2016-04-12T02:36:25.271Z,946.6
2016-04-12T02:37:25.273Z,946.61
2016-04-12T02:38:25.291Z,946.64
2016-04-12T02:39:25.293Z,946.63
2016-04-12T02:40:25.312Z,946.63
2016-04-12T02:41:25.330Z,946.6
2016-04-12T02:42:25.332Z,946.58
2016-04-12T02:43:25.351Z,946.61
2016-04-12T02:44:25.370Z,946.6
2016-04-12T02:45:25.373Z,946.61
2016-04-12T02:46:25.406Z,946.58
2016-04-12T02:47:25.409Z,946.61
2016-04-12T02:48:25.427Z,946.62
2016-04-12T02:49:25.430Z,946.57
2016-04-12T02:50:25.448Z,946.62
2016-04-12T02:51:25.466Z,946.62
2016-04-12T02:52:25.484Z,946.6
2016-04-12T02:53:25.487Z,946.62
2016-04-12T02:54:25.505Z,946.56
2016-04-12T02:55:25.524Z,946.61
2016-04-12T02:56:25.527Z,946.55
2016-04-12T02:57:25.544Z,946.54
2016-04-12T02:58:25.563Z,946.54
2016-04-12T02:59:25.581Z,946.53
2016-04-12T03:00:25.584Z,946.55
2016-04-12T03:01:25.602Z,946.57
2016-04-12T03:02:25.636Z,946.54
2016-04-12T03:03:25.638Z,946.52
2016-04-12T03:04:25.641Z,946.55
2016-04-12T03:05:25.660Z,946.55
2016-04-12T03:06:25.662Z,946.53
2016-04-12T03:07:25.681Z,946.51
2016-04-12T03:08:25.699Z,946.57
2016-04-12T03:09:25.717Z,946.51
2016-04-12T03:10:25.736Z,946.51
2016-04-12T03:11:25.739Z,946.49
2016-04-12T03:12:25.757Z,946.47
2016-04-12T03:13:25.776Z,946.48
2016-04-12T03:14:25.778Z,946.44
2016-04-12T03:15:25.796Z,946.47
2016-04-12T03:16:25.814Z,946.47
2016-04-12T03:17:25.817Z,946.44
2016-04-12T03:18:25.836Z,946.47
2016-04-12T03:19:25.853Z,946.48
2016-04-12T03:20:25.873Z,946.51
2016-04-12T03:21:25.876Z,946.54
2016-04-12T03:22:25.894Z,946.5
2016-04-12T03:23:25.912Z,946.56
2016-04-12T03:24:25.930Z,946.59
2016-04-12T03:25:25.933Z,946.62
2016-04-12T03:26:25.951Z,946.71
2016-04-12T03:27:25.969Z,946.72
2016-04-12T03:28:25.972Z,946.73
2016-04-12T03:29:25.990Z,946.74
2016-04-12T03:30:26.008Z,946.72
2016-04-12T03:31:26.011Z,946.64
2016-04-12T03:32:26.029Z,946.64
2016-04-12T03:33:26.048Z,946.63
2016-04-12T03:34:26.066Z,946.7
2016-04-12T03:35:26.069Z,946.67
2016-04-12T03:36:26.087Z,946.73
2016-04-12T03:37:26.105Z,946.75
2016-04-12T03:38:26.108Z,946.82
2016-04-12T03:39:26.143Z,946.8
2016-04-12T03:40:26.146Z,946.81
2016-04-12T03:41:26.148Z,946.84
2016-04-12T03:42:26.166Z,946.84
2016-04-12T03:43:26.184Z,946.86
2016-04-12T03:44:26.203Z,946.82
2016-04-12T03:45:26.206Z,946.84
2016-04-12T03:46:26.223Z,946.78
2016-04-12T03:47:26.242Z,946.8
2016-04-12T03:48:26.259Z,946.77
2016-04-12T03:49:26.262Z,946.83
2016-04-12T03:50:26.281Z,946.84
2016-04-12T03:51:26.299Z,946.89
2016-04-12T03:52:26.302Z,946.9
2016-04-12T03:53:26.336Z,946.94
2016-04-12T03:54:26.339Z,946.97
2016-04-12T03:55:26.358Z,946.92
2016-04-12T03:56:26.360Z,946.89
2016-04-12T03:57:26.378Z,946.91
2016-04-12T03:58:26.396Z,946.87
2016-04-12T03:59:26.400Z,946.89
2016-04-12T04:00:26.417Z,946.92
2016-04-12T04:01:26.436Z,946.97
2016-04-12T04:02:26.547Z,947.01
2016-04-12T04:03:26.472Z,946.97
2016-04-12T04:04:26.475Z,946.98
2016-04-12T04:05:26.494Z,947
2016-04-12T04:06:26.512Z,947.01
2016-04-12T04:07:26.514Z,947.04
2016-04-12T04:08:26.563Z,947.1
2016-04-12T04:09:26.552Z,947.2
2016-04-12T04:10:26.569Z,947.24
2016-04-12T04:11:26.572Z,947.21
2016-04-12T04:12:26.590Z,947.17
2016-04-12T04:13:26.609Z,947.13
2016-04-12T04:14:26.627Z,947.16
2016-04-12T04:15:26.645Z,947.14
2016-04-12T04:16:26.648Z,947.11
2016-04-12T04:17:26.666Z,947.12
2016-04-12T04:18:26.685Z,947.1
2016-04-12T04:19:26.687Z,947.11
2016-04-12T04:20:26.706Z,947.06
2016-04-12T04:21:26.723Z,947.04
2016-04-12T04:22:26.758Z,947.08
2016-04-12T04:23:26.745Z,947.09
2016-04-12T04:24:26.763Z,947.09
2016-04-12T04:25:26.781Z,947.03
2016-04-12T04:26:26.800Z,947.05
2016-04-12T04:27:26.803Z,947.01
2016-04-12T04:28:26.821Z,946.98
2016-04-12T04:29:26.839Z,946.97
2016-04-12T04:30:26.858Z,947
2016-04-12T04:31:26.860Z,947.01
2016-04-12T04:32:26.972Z,947.03
2016-04-12T04:33:26.897Z,947.06
2016-04-12T04:34:26.915Z,947.05
2016-04-12T04:35:26.918Z,947.06
2016-04-12T04:36:26.935Z,947.08
2016-04-12T04:37:26.955Z,947.09
2016-04-12T04:38:26.973Z,947.04
2016-04-12T04:39:26.976Z,947.06
2016-04-12T04:40:26.994Z,947.04
2016-04-12T04:41:27.012Z,947.04
2016-04-12T04:42:27.030Z,947.01
2016-04-12T04:43:27.033Z,946.98
2016-04-12T04:44:27.051Z,946.97
2016-04-12T04:45:27.085Z,946.91
2016-04-12T04:46:27.073Z,946.85
2016-04-12T04:47:27.168Z,946.85
2016-04-12T04:48:27.109Z,946.81
2016-04-12T04:49:27.128Z,946.82
2016-04-12T04:50:27.146Z,946.77
2016-04-12T04:51:27.164Z,946.76
2016-04-12T04:52:27.167Z,946.73
2016-04-12T04:53:27.184Z,946.66
2016-04-12T04:54:27.188Z,946.69
2016-04-12T04:55:27.206Z,946.65
2016-04-12T04:56:27.225Z,946.6
2016-04-12T04:57:27.242Z,946.6
2016-04-12T04:58:27.260Z,946.58
2016-04-12T04:59:27.264Z,946.6
2016-04-12T05:00:27.282Z,946.63
2016-04-12T05:01:27.300Z,946.76
2016-04-12T05:02:27.319Z,946.8
2016-04-12T05:03:27.321Z,946.83
2016-04-12T05:04:27.339Z,946.86
2016-04-12T05:05:27.358Z,946.99
2016-04-12T05:06:27.361Z,946.95
2016-04-12T05:07:27.379Z,946.89
2016-04-12T05:08:27.397Z,946.92
2016-04-12T05:09:27.416Z,947.03
2016-04-12T05:10:27.522Z,947.01
2016-04-12T05:11:27.431Z,946.97
2016-04-12T05:12:27.495Z,946.98
2016-04-12T05:13:27.468Z,946.95
2016-04-12T05:14:27.470Z,946.99
2016-04-12T05:15:27.488Z,947
2016-04-12T05:16:27.507Z,946.99
2016-04-12T05:17:27.587Z,947.06
2016-04-12T05:18:27.528Z,947.08
2016-04-12T05:19:27.545Z,947.13
2016-04-12T05:20:27.564Z,947.18
2016-04-12T05:21:27.583Z,947.23
2016-04-12T05:22:27.585Z,947.22
2016-04-12T05:23:27.603Z,947.25
2016-04-12T05:24:27.622Z,947.24
2016-04-12T05:25:27.625Z,947.22
2016-04-12T05:26:27.644Z,947.21
2016-04-12T05:27:27.677Z,947.19
2016-04-12T05:28:27.695Z,947.25
2016-04-12T05:29:27.697Z,947.2
2016-04-12T05:30:27.700Z,947.25
2016-04-12T05:31:27.719Z,947.29
2016-04-12T05:32:27.737Z,947.25
2016-04-12T05:33:27.755Z,947.17
2016-04-12T05:34:27.757Z,947.13
2016-04-12T05:35:27.777Z,947.13
2016-04-12T05:36:27.779Z,947.08
2016-04-12T05:37:27.797Z,947.05
2016-04-12T05:38:27.816Z,946.97
2016-04-12T05:39:27.834Z,946.9
2016-04-12T05:40:27.852Z,946.88
2016-04-12T05:41:27.855Z,946.98
2016-04-12T05:42:27.889Z,947.04
2016-04-12T05:43:27.892Z,947.12
2016-04-12T05:44:27.909Z,947.16
2016-04-12T05:45:27.913Z,947.22
2016-04-12T05:46:27.931Z,947.22
2016-04-12T05:47:27.950Z,947.19
2016-04-12T05:48:27.967Z,947.17
2016-04-12T05:49:27.970Z,947.14
2016-04-12T05:50:27.989Z,947.19
2016-04-12T05:51:28.006Z,947.16
2016-04-12T05:52:28.025Z,947.16
2016-04-12T05:53:28.028Z,947.15
2016-04-12T05:54:28.047Z,947.16
2016-04-12T05:55:28.064Z,947.18
2016-04-12T05:56:28.083Z,947.29
2016-04-12T05:57:28.086Z,947.33
2016-04-12T05:58:28.104Z,947.38
2016-04-12T05:59:28.122Z,947.48
2016-04-12T06:00:28.141Z,947.51
2016-04-12T06:01:28.143Z,947.56
2016-04-12T06:02:28.161Z,947.65
2016-04-12T06:03:28.180Z,947.7
2016-04-12T06:04:28.199Z,947.8
2016-04-12T06:05:28.201Z,947.86
2016-04-12T06:06:28.218Z,947.89
2016-04-12T06:07:28.238Z,947.9
2016-04-12T06:08:28.256Z,947.88
2016-04-12T06:09:28.259Z,947.85
2016-04-12T06:10:28.277Z,947.92
2016-04-12T06:11:28.295Z,947.93
2016-04-12T06:12:28.313Z,947.91
2016-04-12T06:13:28.315Z,947.89
2016-04-12T06:14:28.334Z,947.88
2016-04-12T06:15:28.353Z,947.87
2016-04-12T06:16:28.371Z,947.89
2016-04-12T06:17:28.373Z,947.98
2016-04-12T06:18:28.392Z,948
2016-04-12T06:19:28.411Z,948.01
2016-04-12T06:20:28.428Z,947.99
2016-04-12T06:21:28.431Z,948.05
2016-04-12T06:22:28.450Z,948.07
2016-04-12T06:23:28.468Z,948.1
2016-04-12T06:24:28.470Z,948.16
2016-04-12T06:25:28.505Z,948.23
2016-04-12T06:26:28.523Z,948.25
2016-04-12T06:27:28.525Z,948.24
2016-04-12T06:28:28.543Z,948.25
2016-04-12T06:29:28.547Z,948.27
2016-04-12T06:30:28.565Z,948.25
2016-04-12T06:31:28.583Z,948.27
2016-04-12T06:32:28.602Z,948.34
2016-04-12T06:33:28.619Z,948.28
2016-04-12T06:34:28.622Z,948.29
2016-04-12T06:35:28.641Z,948.31
2016-04-12T06:36:28.660Z,948.31
2016-04-12T06:37:28.662Z,948.33
2016-04-12T06:38:28.680Z,948.33
2016-04-12T06:39:28.699Z,948.31
2016-04-12T06:40:28.733Z,948.36
2016-04-12T06:41:28.720Z,948.37
2016-04-12T06:42:28.737Z,948.42
2016-04-12T06:43:28.756Z,948.48
2016-04-12T06:44:28.774Z,948.53
2016-04-12T06:45:28.793Z,948.61
2016-04-12T06:46:28.795Z,948.69
2016-04-12T06:47:28.814Z,948.8
2016-04-12T06:48:28.832Z,948.89
2016-04-12T06:49:28.850Z,948.96
2016-04-12T06:50:28.853Z,948.96
2016-04-12T06:51:28.872Z,949.02
2016-04-12T06:52:28.890Z,949.03
2016-04-12T06:53:28.908Z,949.05
2016-04-12T06:54:28.911Z,949.09
2016-04-12T06:55:28.929Z,949.12
2016-04-12T06:56:28.948Z,949.14
2016-04-12T06:57:28.966Z,949.09
2016-04-12T06:58:28.984Z,949.09
2016-04-12T06:59:28.986Z,949.16
2016-04-12T07:00:29.005Z,949.16
2016-04-12T07:01:29.023Z,949.15
2016-04-12T07:02:29.041Z,949.19
2016-04-12T07:03:29.044Z,949.25
2016-04-12T07:04:29.063Z,949.3
2016-04-12T07:05:29.080Z,949.15
2016-04-12T07:06:29.099Z,949.26
2016-04-12T07:07:29.102Z,949.3
2016-04-12T07:08:29.135Z,949.34
2016-04-12T07:09:29.138Z,949.35
2016-04-12T07:10:29.157Z,949.37
2016-04-12T07:11:29.315Z,949.45
2016-04-12T07:12:29.178Z,949.43
2016-04-12T07:13:29.196Z,949.47
2016-04-12T07:14:29.215Z,949.5
2016-04-12T07:15:29.232Z,949.51
2016-04-12T07:16:29.235Z,949.57
2016-04-12T07:17:29.254Z,949.66
2016-04-12T07:18:29.272Z,949.61
2016-04-12T07:19:29.290Z,949.61
2016-04-12T07:20:29.293Z,949.63
2016-04-12T07:21:29.312Z,949.64
2016-04-12T07:22:29.330Z,949.65
2016-04-12T07:23:29.348Z,949.65
2016-04-12T07:24:29.366Z,949.7
2016-04-12T07:25:29.384Z,949.69
2016-04-12T07:26:29.403Z,949.68
2016-04-12T07:27:29.406Z,949.68
2016-04-12T07:28:29.424Z,949.75
2016-04-12T07:29:29.427Z,949.76
2016-04-12T07:30:29.445Z,949.77
2016-04-12T07:31:29.463Z,949.75
2016-04-12T07:32:29.497Z,949.77
2016-04-12T07:33:29.485Z,949.78
2016-04-12T07:34:29.503Z,949.81
2016-04-12T07:35:29.536Z,949.84
2016-04-12T07:36:29.538Z,949.83
2016-04-12T07:37:29.558Z,949.86
2016-04-12T07:38:29.576Z,949.89
2016-04-12T07:39:29.579Z,949.92
2016-04-12T07:40:29.597Z,949.98
2016-04-12T07:41:29.615Z,949.96
2016-04-12T07:42:29.621Z,949.96
2016-04-12T07:43:29.688Z,950.01
2016-04-12T07:44:29.754Z,950.06
2016-04-12T07:45:29.835Z,950.13
2016-04-12T07:46:29.887Z,950.16
2016-04-12T07:47:29.935Z,950.23
2016-04-12T07:48:29.971Z,950.24
2016-04-12T07:49:30.006Z,950.22
2016-04-12T07:50:30.042Z,950.26
2016-04-12T07:51:30.062Z,950.26
2016-04-12T07:52:30.097Z,950.27
2016-04-12T07:53:30.122Z,950.29
2016-04-12T07:54:30.145Z,950.3
2016-04-12T07:55:30.154Z,950.29
2016-04-12T07:56:30.179Z,950.35
2016-04-12T07:57:30.203Z,950.31
2016-04-12T07:58:30.224Z,950.37
2016-04-12T07:59:30.229Z,950.39
2016-04-12T08:00:30.250Z,950.48
2016-04-12T08:01:30.269Z,950.43
2016-04-12T08:02:30.290Z,950.51
2016-04-12T08:03:30.294Z,950.51
2016-04-12T08:04:30.314Z,950.51
2016-04-12T08:05:30.332Z,950.56
2016-04-12T08:06:30.351Z,950.56
2016-04-12T08:07:30.370Z,950.55
2016-04-12T08:08:30.378Z,950.56
2016-04-12T08:09:30.397Z,950.53
2016-04-12T08:10:30.399Z,950.55
2016-04-12T08:11:30.419Z,950.6
2016-04-12T08:12:30.437Z,950.57
2016-04-12T08:13:30.455Z,950.58
2016-04-12T08:14:30.478Z,950.58
2016-04-12T08:15:30.481Z,950.59
2016-04-12T08:16:30.500Z,950.57
2016-04-12T08:17:30.503Z,950.62
2016-04-12T08:18:30.521Z,950.59
2016-04-12T08:19:30.538Z,950.58
2016-04-12T08:20:30.558Z,950.57
2016-04-12T08:21:30.575Z,950.63
2016-04-12T08:22:30.578Z,950.58
2016-04-12T08:23:30.596Z,950.58
2016-04-12T08:24:30.616Z,950.59
2016-04-12T08:25:30.618Z,950.57
2016-04-12T08:26:30.635Z,950.54
2016-04-12T08:27:30.654Z,950.54
2016-04-12T08:28:30.673Z,950.53
2016-04-12T08:29:30.676Z,950.51
2016-04-12T08:30:30.694Z,950.55
2016-04-12T08:31:30.712Z,950.47
2016-04-12T08:32:30.730Z,950.48
2016-04-12T08:33:30.732Z,950.49
2016-04-12T08:34:30.751Z,950.47
2016-04-12T08:35:30.770Z,950.47
2016-04-12T08:36:30.804Z,950.53
2016-04-12T08:37:30.790Z,950.52
2016-04-12T08:38:30.809Z,950.55
2016-04-12T08:39:30.828Z,950.53
2016-04-12T08:40:30.846Z,950.55
2016-04-12T08:41:30.848Z,950.52
2016-04-12T08:42:30.867Z,950.54
2016-04-12T08:43:30.901Z,950.55
2016-04-12T08:44:30.887Z,950.55
2016-04-12T08:45:30.922Z,950.61
2016-04-12T08:46:30.925Z,950.6
2016-04-12T08:47:30.942Z,950.68
2016-04-12T08:48:30.945Z,950.67
2016-04-12T08:49:30.964Z,950.64
2016-04-12T08:50:30.982Z,950.64
2016-04-12T08:51:31.000Z,950.63
2016-04-12T08:52:31.003Z,950.6
2016-04-12T08:53:31.021Z,950.59
2016-04-12T08:54:31.039Z,950.63
2016-04-12T08:55:31.058Z,950.65
2016-04-12T08:56:31.077Z,950.65
2016-04-12T08:57:31.079Z,950.66
2016-04-12T08:58:31.097Z,950.62
2016-04-12T08:59:31.116Z,950.65
2016-04-12T09:00:31.118Z,950.62
2016-04-12T09:01:31.137Z,950.62
2016-04-12T09:02:31.155Z,950.61
2016-04-12T09:03:31.173Z,950.63
2016-04-12T09:04:31.191Z,950.69
2016-04-12T09:05:31.209Z,950.68
2016-04-12T09:06:31.212Z,950.7
2016-04-12T09:07:31.231Z,950.7
2016-04-12T09:08:31.234Z,950.75
2016-04-12T09:09:31.256Z,950.76
2016-04-12T09:10:31.275Z,950.8
2016-04-12T09:11:31.278Z,950.82
2016-04-12T09:12:31.312Z,950.81
2016-04-12T09:13:31.314Z,950.8
2016-04-12T09:14:31.333Z,950.77
2016-04-12T09:15:31.350Z,950.77
2016-04-12T09:16:31.353Z,950.75
2016-04-12T09:17:31.372Z,950.73
2016-04-12T09:18:31.406Z,950.71
2016-04-12T09:19:31.408Z,950.68
2016-04-12T09:20:31.427Z,950.71
2016-04-12T09:21:31.444Z,950.75
2016-04-12T09:22:31.447Z,950.77
2016-04-12T09:23:31.466Z,950.76
2016-04-12T09:24:31.485Z,950.74
2016-04-12T09:25:31.502Z,950.72
2016-04-12T09:26:31.521Z,950.68
2016-04-12T09:27:31.540Z,950.7
2016-04-12T09:28:31.542Z,950.69
2016-04-12T09:29:31.560Z,950.69
2016-04-12T09:30:31.579Z,950.66
2016-04-12T09:31:31.597Z,950.65
2016-04-12T09:32:31.615Z,950.65
2016-04-12T09:33:31.634Z,950.68
2016-04-12T09:34:31.668Z,950.67
2016-04-12T09:35:31.655Z,950.65
2016-04-12T09:36:31.673Z,950.65
2016-04-12T09:37:31.692Z,950.67
2016-04-12T09:38:31.709Z,950.69
2016-04-12T09:39:31.728Z,950.69
2016-04-12T09:40:31.731Z,950.71
2016-04-12T09:41:31.765Z,950.75
2016-04-12T09:42:31.767Z,950.77
2016-04-12T09:43:31.786Z,950.75
2016-04-12T09:44:31.819Z,950.68
2016-04-12T09:45:31.822Z,950.7
2016-04-12T09:46:31.841Z,950.73
2016-04-12T09:47:31.844Z,950.74
2016-04-12T09:48:31.877Z,950.74
2016-04-12T09:49:31.895Z,950.7
2016-04-12T09:50:31.898Z,950.73
2016-04-12T09:51:31.916Z,950.74
2016-04-12T09:52:31.934Z,950.74
2016-04-12T09:53:31.952Z,950.75
2016-04-12T09:54:31.972Z,950.76
2016-04-12T09:55:31.990Z,950.76
2016-04-12T09:56:32.008Z,950.73
2016-04-12T09:57:32.010Z,950.79
2016-04-12T09:58:32.044Z,950.79
2016-04-12T09:59:32.063Z,950.77
2016-04-12T10:00:32.066Z,950.72
2016-04-12T10:01:32.085Z,950.69
2016-04-12T10:02:32.102Z,950.7
2016-04-12T10:03:32.120Z,950.7
2016-04-12T10:04:32.139Z,950.69
2016-04-12T10:05:32.142Z,950.67
2016-04-12T10:06:32.175Z,950.66
2016-04-12T10:07:32.179Z,950.65
2016-04-12T10:08:32.196Z,950.65
2016-04-12T10:09:32.215Z,950.66
2016-04-12T10:10:32.233Z,950.68
2016-04-12T10:11:32.251Z,950.68
2016-04-12T10:12:32.270Z,950.67
2016-04-12T10:13:32.288Z,950.66
2016-04-12T10:14:32.306Z,950.64
2016-04-12T10:15:32.324Z,950.62
2016-04-12T10:16:32.343Z,950.63
2016-04-12T10:17:32.361Z,950.59
2016-04-12T10:18:32.395Z,950.55
2016-04-12T10:19:32.397Z,950.55
2016-04-12T10:20:32.416Z,950.57
2016-04-12T10:21:32.435Z,950.58
2016-04-12T10:22:32.453Z,950.52
2016-04-12T10:23:32.472Z,950.59
2016-04-12T10:24:32.489Z,950.54
2016-04-12T10:25:32.507Z,950.57
2016-04-12T10:26:32.526Z,950.56
2016-04-12T10:27:32.544Z,950.54
2016-04-12T10:28:32.563Z,950.5
2016-04-12T10:29:32.581Z,950.47
2016-04-12T10:30:32.599Z,950.48
2016-04-12T10:31:32.618Z,950.49
2016-04-12T10:32:32.635Z,950.45
2016-04-12T10:33:32.701Z,950.52
2016-04-12T10:34:32.673Z,950.51
2016-04-12T10:35:32.690Z,950.52
2016-04-12T10:36:32.710Z,950.51
2016-04-12T10:37:32.728Z,950.56
2016-04-12T10:38:32.746Z,950.55
2016-04-12T10:39:32.764Z,950.51
2016-04-12T10:40:32.782Z,950.55
2016-04-12T10:41:32.816Z,950.51
2016-04-12T10:42:32.819Z,950.51
2016-04-12T10:43:32.838Z,950.56
2016-04-12T10:44:32.856Z,950.5
2016-04-12T10:45:32.875Z,950.52
2016-04-12T10:46:32.892Z,950.5
2016-04-12T10:47:32.911Z,950.53
2016-04-12T10:48:32.945Z,950.56
2016-04-12T10:49:32.948Z,950.55
2016-04-12T10:50:32.981Z,950.54
2016-04-12T10:51:32.983Z,950.5
2016-04-12T10:52:33.003Z,950.47
2016-04-12T10:53:33.021Z,950.4
2016-04-12T10:54:33.055Z,950.41
2016-04-12T10:55:33.073Z,950.35
2016-04-12T10:56:33.091Z,950.3
2016-04-12T10:57:33.110Z,950.25
2016-04-12T10:58:33.127Z,950.25
2016-04-12T10:59:33.146Z,950.23
2016-04-12T11:00:33.165Z,950.24
2016-04-12T11:01:33.198Z,950.25
2016-04-12T11:02:33.216Z,950.26
2016-04-12T11:03:33.251Z,950.22
2016-04-12T11:04:33.268Z,950.23
2016-04-12T11:05:33.271Z,950.23
2016-04-12T11:06:33.306Z,950.27
2016-04-12T11:07:33.323Z,950.23
2016-04-12T11:08:33.342Z,950.17
2016-04-12T11:09:33.377Z,950.15
2016-04-12T11:10:33.395Z,950.11
2016-04-12T11:11:33.412Z,950.13
2016-04-12T11:12:33.447Z,950.11
2016-04-12T11:13:33.464Z,950.13
2016-04-12T11:14:33.484Z,950.17
2016-04-12T11:15:33.517Z,950.1
2016-04-12T11:16:33.520Z,950.15
2016-04-12T11:17:33.553Z,950.11
2016-04-12T11:18:33.572Z,950.08
2016-04-12T11:19:33.606Z,950.07
2016-04-12T11:20:33.624Z,950.05
2016-04-12T11:21:33.642Z,950.04
2016-04-12T11:22:33.661Z,950.09
2016-04-12T11:23:33.695Z,950.1
2016-04-12T11:24:33.714Z,950.08
2016-04-12T11:25:33.732Z,950.11
2016-04-12T11:26:33.766Z,950.05
2016-04-12T11:27:33.799Z,950.09
2016-04-12T11:28:33.802Z,949.99
2016-04-12T11:29:33.821Z,950.02
2016-04-12T11:30:33.855Z,949.98
2016-04-12T11:31:33.874Z,949.96
2016-04-12T11:32:33.890Z,949.97
2016-04-12T11:33:33.925Z,949.92
2016-04-12T11:34:33.944Z,949.88
2016-04-12T11:35:33.962Z,949.97
2016-04-12T11:36:33.996Z,949.9
2016-04-12T11:37:34.014Z,949.85
2016-04-12T11:38:34.032Z,949.89
2016-04-12T11:39:34.065Z,949.89
2016-04-12T11:40:34.084Z,949.93
2016-04-12T11:41:34.103Z,949.92
2016-04-12T11:42:34.136Z,949.88
2016-04-12T11:43:34.155Z,949.88
2016-04-12T11:44:34.190Z,949.87
2016-04-12T11:45:34.207Z,949.84
2016-04-12T11:46:34.225Z,949.81
2016-04-12T11:47:34.259Z,949.81
2016-04-12T11:48:34.294Z,949.8
2016-04-12T11:49:34.312Z,949.79
2016-04-12T11:50:34.330Z,949.75
2016-04-12T11:51:34.348Z,949.75
2016-04-12T11:52:34.382Z,949.76
2016-04-12T11:53:34.416Z,949.72
2016-04-12T11:54:34.419Z,949.77
2016-04-12T11:55:34.453Z,949.71
2016-04-12T11:56:34.471Z,949.73
2016-04-12T11:57:34.505Z,949.68
2016-04-12T11:58:34.555Z,949.71
2016-04-12T11:59:34.558Z,949.63
2016-04-12T12:00:34.577Z,949.7
2016-04-12T12:01:34.610Z,949.6
2016-04-12T12:02:34.628Z,949.61
2016-04-12T12:03:34.662Z,949.62
2016-04-12T12:04:34.696Z,949.69
2016-04-12T12:05:34.699Z,949.66
2016-04-12T12:06:34.732Z,949.67
2016-04-12T12:07:34.751Z,949.64
2016-04-12T12:08:34.785Z,949.64
2016-04-12T12:09:34.803Z,949.68
2016-04-12T12:10:34.837Z,949.65
2016-04-12T12:11:34.855Z,949.62
2016-04-12T12:12:34.873Z,949.65
2016-04-12T12:13:34.908Z,949.64
2016-04-12T12:14:34.926Z,949.61
2016-04-12T12:15:34.959Z,949.6
2016-04-12T12:16:34.994Z,949.59
2016-04-12T12:17:35.012Z,949.57
2016-04-12T12:18:35.046Z,949.55
2016-04-12T12:19:35.065Z,949.58
2016-04-12T12:20:35.083Z,949.57
2016-04-12T12:21:35.117Z,949.58
2016-04-12T12:22:35.136Z,949.56
2016-04-12T12:23:35.169Z,949.55
2016-04-12T12:24:35.187Z,949.54
2016-04-12T12:25:35.222Z,949.52
2016-04-12T12:26:35.239Z,949.48
2016-04-12T12:27:35.274Z,949.53
2016-04-12T12:28:35.292Z,949.45
2016-04-12T12:29:35.325Z,949.49
2016-04-12T12:30:35.344Z,949.42
2016-04-12T12:31:35.378Z,949.4